Flight Track Log - Related Links

Times and Time Zones

All times are in EDT time to prevent confusion due to time zone crossing. See the GCT23 flight status page for this flight to view local times or setup timezone preferences in your user account.

Time Position Orientation Groundspeed Altitude Reporting Facility
EDT Latitude Longitude Course Direction KTS MPH feet Rate Location/Type
Fri 07:59:46 AM 30.0569 -90.0297 North 146 168 400  Level Houston Center
Fri 08:00:29 AM 30.0903 -90.0258 North 165 190 2,000 1,976 Climbing Houston Center
Fri 08:01:11 AM 30.1089 -90.0408 325° Northwest 177 204 3,200 2,066 Climbing Houston Center
Fri 08:01:30 AM 30.1017 -90.0614 248° West 173 199 4,100 2,164 Climbing Houston Center
Fri 08:02:12 AM 30.0822 -90.0858 227° Southwest 181 208 5,400 2,214 Climbing Houston Center
Fri 08:03:13 AM 30.0506 -90.1306 231° Southwest 180 207 7,900 2,341 Climbing Houston Center
Fri 08:04:15 AM 30.0114 -90.1778 226° Southwest 174 200 10,200 1,951 Climbing Houston Center
Fri 08:05:16 AM 29.9783 -90.2156 225° Southwest 172 198 11,900 1,584 Climbing Houston Center
Fri 08:06:20 AM 29.9650 -90.2678 254° West 168 193 13,500 1,512 Climbing Houston Center
Fri 08:07:19 AM 29.9486 -90.3197 250° West 169 194 15,000 1,500 Climbing Houston Center
Fri 08:08:20 AM 29.9311 -90.3733 249° West 175 201 16,500 1,377 Climbing Houston Center
Fri 08:09:21 AM 29.9142 -90.4261 250° West 175 201 17,800 1,220 Climbing Houston Center
Fri 08:10:23 AM 29.8967 -90.4828 250° West 182 209 19,000 1,171 Climbing Houston Center
Fri 08:11:24 AM 29.8783 -90.5411 250° West 189 217 20,200 1,180 Climbing Houston Center
Fri 08:12:25 AM 29.8594 -90.5992 249° West 191 220 21,400 878 Climbing Houston Center
Fri 08:13:27 AM 29.8361 -90.6714 250° West 201 231 22,000 293 Climbing Houston Center
Fri 08:14:28 AM 29.8119 -90.7433 249° West 234 269 22,000  Level Houston Center
Fri 08:15:30 AM 29.7867 -90.8219 250° West 259 298 22,000  Level Houston Center
Fri 08:16:31 AM 29.7628 -90.9014 251° West 261 300 22,000  Level Houston Center
Fri 08:17:33 AM 29.7372 -90.9817 250° West 263 303 22,000  Level Houston Center
Fri 08:18:34 AM 29.7097 -91.0639 249° West 271 312 22,000  Level Houston Center
Fri 08:19:35 AM 29.6828 -91.1450 249° West 271 312 22,000  Level Houston Center
Fri 08:20:37 AM 29.6569 -91.2258 250° West 271 312 22,000  Level Houston Center
Fri 08:21:38 AM 29.6308 -91.3064 250° West 271 312 22,000  Level Houston Center
Fri 08:22:40 AM 29.5989 -91.4036 249° West 271 312 22,000  Level Houston Center
Fri 08:23:42 AM 29.5728 -91.4833 249° West 269 310 22,000  Level Houston Center
Fri 08:24:43 AM 29.5467 -91.5642 250° West 270 311 22,000  Level Houston Center
Fri 08:25:45 AM 29.5183 -91.6439 248° West 269 310 22,000  Level Houston Center
Fri 08:26:46 AM 29.4911 -91.7297 250° West 269 310 22,000  Level Houston Center
Fri 08:27:48 AM 29.4639 -91.8103 249° West 269 310 22,000  Level Houston Center
Fri 08:28:50 AM 29.4372 -91.8914 249° West 269 310 22,000  Level Houston Center
Fri 08:29:51 AM 29.4311 -91.9772 265° West 269 310 22,000  Level Houston Center
Fri 08:30:53 AM 29.4269 -92.0628 267° West 269 310 22,000  Level Houston Center
Fri 08:31:54 AM 29.4217 -92.1481 266° West 269 310 22,000  Level Houston Center
Fri 08:32:58 AM 29.4158 -92.2517 266° West 269 310 22,000  Level Houston Center
Fri 08:33:58 AM 29.4103 -92.3372 266° West 269 310 22,000  Level Houston Center
Fri 08:35:00 AM 29.4058 -92.4231 267° West 270 311 22,000  Level Houston Center
Fri 08:36:01 AM 29.4011 -92.5089 266° West 270 311 22,000  Level Houston Center
Fri 08:37:03 AM 29.3958 -92.5953 266° West 271 312 22,000  Level Houston Center
Fri 08:38:05 AM 29.3897 -92.6822 265° West 271 312 22,000  Level Houston Center
Fri 08:39:06 AM 29.3856 -92.7669 267° West 271 312 22,000  Level Houston Center
Fri 08:40:08 AM 29.3783 -92.8547 265° West 271 312 22,000  Level Houston Center
Fri 08:41:10 AM 29.3728 -92.9567 266° West 271 312 22,000  Level Houston Center
Fri 08:42:12 AM 29.3678 -93.0417 266° West 271 312 22,000  Level Houston Center
Fri 08:43:13 AM 29.3628 -93.1269 266° West 270 311 22,000  Level Houston Center
Fri 08:44:15 AM 29.3572 -93.2128 266° West 270 311 22,000  Level Houston Center
Fri 08:45:17 AM 29.3508 -93.2986 265° West 270 311 22,000  Level Houston Center
Fri 08:46:19 AM 29.3461 -93.3842 266° West 270 311 22,000  Level Houston Center
Fri 08:47:21 AM 29.3400 -93.4681 265° West 269 310 22,000  Level Houston Center
Fri 08:48:23 AM 29.3339 -93.5700 266° West 268 308 22,000  Level Houston Center
Fri 08:49:24 AM 29.3278 -93.6550 265° West 268 308 22,000  Level Houston Center
Fri 08:50:26 AM 29.3225 -93.7411 266° West 268 308 22,000 -48 Level Houston Center
Fri 08:51:28 AM 29.3158 -93.8244 265° West 268 308 21,900 -677 Descending Houston Center
Fri 08:52:30 AM 29.3100 -93.9083 265° West 278 320 20,600 -1,548 Descending Houston Center
Fri 08:53:32 AM 29.3022 -94.0253 266° West 301 346 18,700 -1,659 Descending Houston Center
Fri 08:54:33 AM 29.2956 -94.1203 265° West 302 348 17,200 -1,632 Descending Houston Center
Fri 08:55:26 AM 29.2872 -94.2069 264° West 298 343 15,600 -1,714 Descending Houston Center
Fri 08:55:50 AM 29.2844 -94.2433 265° West 295 339 15,000 -1,352 Descending Houston Center
Fri 08:56:37 AM 29.2814 -94.3067 267° West 291 335 14,000 -1,548 Descending Houston Center
Fri 08:56:52 AM 29.2775 -94.3400 262° West 290 334 13,400 -1,452 Descending Houston Center
Fri 08:57:39 AM 29.2750 -94.3978 267° West 291 335 12,500 -1,377 Descending Houston Center
Fri 08:57:53 AM 29.2719 -94.4319 264° West 281 323 12,000 -1,355 Descending Houston Center
Fri 08:58:41 AM 29.2697 -94.4861 267° West 283 326 11,100 -1,433 Descending Houston Center
Fri 08:59:00 AM 29.2850 -94.5236 295° West 286 329 10,400 -1,355 Descending Houston Center
Fri 08:59:43 AM 29.3078 -94.5653 302° West 282 325 9,700 -1,418 Descending Houston Center
Fri 08:59:55 AM 29.3217 -94.5958 298° West 278 320 9,100 -1,548 Descending Houston Center
Fri 09:00:45 AM 29.3522 -94.6569 300° West 277 319 8,100 -984 Descending Houston Center
Fri 09:00:56 AM 29.3583 -94.6703 298° West 272 313 8,100  Level Houston Center
Fri 09:01:47 AM 29.3886 -94.7306 300° West 270 311 8,100  Level Houston Center
Fri 09:01:57 AM 29.3975 -94.7492 299° West 264 304 8,100 -871 Level Houston Center
Fri 09:02:49 AM 29.4256 -94.8044 300° West 266 306 7,200 -1,105 Descending Houston Center
Fri 09:03:51 AM 29.4625 -94.8803 299° West 271 312 6,000 -629 Descending Houston Center
Fri 09:04:53 AM 29.4978 -94.9531 299° West 268 308 5,900  Descending Houston Center
Fri 09:05:55 AM 29.5339 -95.0261 300° West 265 305 6,000  Climbing Houston Center
Fri 09:06:57 AM 29.5761 -95.1131 299° West 262 302 5,900 -48 Descending Houston Center
Fri 09:07:59 AM 29.5828 -95.1936 275° West 268 308 5,900 49 Level Houston Center
Fri 09:08:59 AM 29.5406 -95.2622 235° Southwest 257 296 6,000 -726 Climbing Houston Center
Fri 09:10:03 AM 29.4906 -95.3172 224° Southwest 256 295 4,400 -1,429 Descending Houston Center
Fri 09:11:05 AM 29.5056 -95.3806 285° West 233 268 3,000 -1,210 Descending Houston Center
Fri 09:12:07 AM 29.5589 -95.3694 10° North 202 232 1,900 -919 Descending Houston Center
Fri 09:13:09 AM 29.6011 -95.3269 41° Northeast 163 188 1,100 -683 Descending Houston Center
Fri 09:14:10 AM 29.6281 -95.2997 41° Northeast 120 138 500 -590 Descending Houston Center

Login

Don't have an account? Register now (free) for customized features, flight alerts, and more!